Calverton, Maryland
Current Conditions -  °F | °C
As of 9:30 PM on Thursday 20 Nov 2014 (Local Time) from KCGS Reporting Station
Clear Clear  
Wind Chill: 31°   Ceiling: Unl
Heat Index: 37°   Visibility: 10mi
Dew Point: 12°   Wind: 8mph
Humidity: 36%   Direction: 310°NW
Pressure: 30.05"   Gusts: NA
Location:  39.0435°N, 76.8995°W
Report Text: KCGS 210230Z AUTO 31007KT 10SM CLR 03/M11 A3005 RMK AO1
Loading
Personal Weather Stations






























Interactive Weather Map New forecast layout! Learn more

10-Day Weather Forecast

Advertisements
Track Severe Weather on mobile